LiveATC.Net - Listen to live air traffic control over the Internet!

Airport/ARTCC Code
Frequency Search
(e.g., 124.400, 128.75)
Site-wide search
 


Browse Feeds
Top 50 Feeds
HF Oceanic Feeds
Coverage Map
Bad Weather Areas

LiveATC FAQ
Offer LiveATC feed
Contact LiveATC.net
Press Inquiries

LiveATC on iPhone
LiveATC on Android

Windows Phone
Windows 8/10

LiveATC Mobile
(Mobile browser)

ATC Audio Archives
Interesting Recordings

LiveATC Forums

Home Page
About LiveATC.net
Make a Donation
Terms of Use
Privacy Policy

Canadian Air Freqs

AIRMETs/SIGMETs

FAA Airport Status
NAS Status
Arrival Demand


Server Software By:
Icecast.org
Liquidsoap


Current Potentially Bad Weather Airports
(updated every 30 minutes - sorted alphabetically by ICAO code)



This page lists LiveATC.net airport areas that may be interesting to listen to because of challenging flying (weather) conditions. Challenging weather conditions include low ceilings, limited visibility, high or gusty winds, or thunderstorms.

Updated: Mon Nov 29 10:40:01 UTC 2021
Click on airport name to go to that airport area's feeds.

CYAM ATIS Sault Ste. Marie Airport (Sault Ste. Marie, CA-ON)
WX MAP UNAVAILABLENearest METAR:
CYAM 291000Z CCA VRB02KT 8SM -SN FEW008 SCT022 BKN035 OVC055 M04/M04 A2997 RMK SF1SC2SC3NS2 /S02/ SLP160
CYFB CTAF/RDO Iqaluit Airport (Iqaluit, CA-NU)
WX MAP UNAVAILABLENearest METAR:
CYFB 291000Z 33007KT 15SM -SN OVC042 M04/M08 A2917 RMK SC8 SLP882
CYSB Gnd/Twr/Center Sudbury Airport (Sudbury, CA-ON)
WX MAP UNAVAILABLENearest METAR:
CYSB 291025Z 29004KT 6SM -SN OVC010 M06/M06 A2991 RMK SC8 SLP152
CYTS FSS/Misc Timmins/Victor M. Power Airport (Timmins, CA-ON)
WX MAP UNAVAILABLENearest METAR:
CYTS 291000Z 29007KT 260V320 10SM -SN BKN005 OVC020 M06/M07 A2991 RMK SC5SC3 SLP150
CYVO Gnd/RDO/Center Val-D'Or Airport (Val-D'Or, CA-QC)
WX MAP UNAVAILABLENearest METAR:
CYVO 291023Z AUTO 21004KT 2 1/2SM -SN OVC030 M10/M10 A2988 RMK VIS VRB 1 1/2-3 SLP148
CYZF Gnd/Twr/Center Yellowknife Airport (Yellowknife, CA-NT)
WX MAP UNAVAILABLENearest METAR:
CYZF 291000Z 27013G19KT 15SM -SN DRSN FEW016 BKN085 M21/M24 A2959 RMK SC1AC6 PRESRR SLP044
ENBO Approach Bodo Airport (Bodo, Norway)
WX MAP UNAVAILABLENearest METAR:
ENBO 291020Z 09013KT 9999 VCSH FEW008 FEW015CB M05/M08 Q1002 TEMPO 1000 SHSN VV006
ENGM App/Polaris ACC Eggemoen Airport (Honefoss, Norway)
WX MAP UNAVAILABLENearest METAR:
ENGM 291020Z 01004KT 340V040 9999 OVC004 M09/M10 Q1008 TEMPO SCT004
EPKK Tower/App John Paul II Balice International Airport (Krakow, Poland)
WX MAP UNAVAILABLENearest METAR:
EPKK 291000Z 26012KT 8000 OVC006 01/M00 Q0996
EPKT Del/Twr/App Katowice International Airport (Katowice, Poland)
WX MAP UNAVAILABLENearest METAR:
EPKT 291000Z 29010KT 250V340 9999 OVC004 M00/M00 Q0996
EPLL Tower Lublinek Airport (Lodz, Poland)
WX MAP UNAVAILABLENearest METAR:
EPLL 291000Z 28011KT 6000 OVC003 00/M00 Q0995
EPWA Approach #1 Frederic Chopin Airport (Warsaw, Poland)
WX MAP UNAVAILABLENearest METAR:
EPWA 291000Z 29015KT 9999 OVC005 01/00 Q0992 NOSIG
EVRA Tower/Guard Riga International Airport (Riga, Latvia)
WX MAP UNAVAILABLENearest METAR:
EVRA 291020Z 02012KT 6000 -SN BKN007 OVC036 M01/M02 Q0995 RESN TEMPO 3000
KALB Approach/Departure Albany International Airport (Albany, US-NY)
kalbNearest METAR:
KALB 291014Z 35004KT 7SM OVC005 M01/M02 A2984 RMK AO2 T10061017
KBGM Del/Gnd/Twr/App Greater Binghamton Airport/Edwin A Link Field (Binghamton, US-NY)
kbgmNearest METAR:
KBGM 291024Z AUTO 30006KT 3SM -SN BR OVC008 M03/M03 A2979 RMK AO2 SNB0956 CIG 004V010 P0000 T10281033
KBGR Del/Gnd/Twr Bangor International Airport (Bangor, US-ME)
kbgrNearest METAR:
KBGR 291001Z 36008KT 10SM -SN OVC037 M03/M07 A2987 RMK AO2 SNB01 P0000 T10281067
KCRP App/Dep Corpus Christi International Airport (Corpus Christi, US-TX)
kcrpNearest METAR:
KCRP 290951Z 01003KT 1/4SM R13/0700V1600FT FG BKN000 07/07 A3022 RMK AO2 SLP233 FG BKN000 T00670067 $
KCYS Gnd/Twr/App/Center Cheyenne Regional Airport/Jerry Olson Field (Cheyenne, US-WY)
kcysNearest METAR:
KCYS 290953Z AUTO 28030G41KT 10SM CLR 12/M04 A3014 RMK AO2 PK WND 28044/0920 SLP145 T01171039
KDBQ ATIS Dubuque Regional Airport (Dubuque, US-IA)
kdbqNearest METAR:
KDBQ 290953Z AUTO 17005KT 9SM -SN SCT080 OVC110 M01/M09 A3003 RMK AO2 SLP182 P0000 T10111094
KJAN Gnd/Twr/App/Dep Jackson-Medgar Wiley Evers International Airport (Jackson, US-MS)
kjanNearest METAR:
KJAN 291012Z AUTO 00000KT 1/2SM R16L/2000VP6000FT FG VV001 01/00 A3019 RMK AO2 T00110000 $
KLBX CTAF Texas Gulf Coast Regional Airport (Angleton/Lake Jackson, US-TX)
klbxNearest METAR:
KLBX 291020Z AUTO 00000KT OVC001 07/05 A3021 RMK AO2 T00720050
KMAN/KEUL CTAF Nampa Municipal Airport (Nampa, US-ID)
keulNearest METAR:
KEUL 291026Z AUTO 05003KT 1/2SM FZFG VV002 M02/M03 A3029 RMK AO2 FZRANO RVRNO
KMFR App/Dep Rogue Valley International - Medford Airport (Medford, US-OR)
kmfrNearest METAR:
KMFR 290953Z AUTO 00000KT 2SM BR OVC003 09/09 A3031 RMK AO2 SLP266 T00890089 $
Seattle App/Dep Olympia Regional Airport (Olympia, US-WA)
kolmNearest METAR:
KOLM 291004Z AUTO 24005KT 6SM BR OVC005 12/11 A3021 RMK AO2 T01170111
KPIT App/Dep #1 Pittsburgh International Airport (Pittsburgh, US-PA)
kpitNearest METAR:
KPIT 290951Z 29010KT 9SM -SN SCT009 OVC015 00/M02 A2997 RMK AO2 SLP167 P0001 T00001022
KPWT CTAF Bremerton National Airport (Bremerton, US-WA)
kpwtNearest METAR:
KPWT 290956Z AUTO 21007KT 10SM OVC005 11/11 A3019 RMK AO2 SLP228 T01110106
KRAS CTAF Mustang Beach Airport (Port Aransas, US-TX)
krasNearest METAR:
KRAS 291015Z AUTO 35003KT M1/4SM FG OVC002 11/11 A3024 RMK AO2 T01140113
KROC Approach Greater Rochester International Airport (Rochester, US-NY)
krocNearest METAR:
KROC 290954Z 33006KT 9SM -SN FEW010 FEW013 OVC021 M01/M02 A2992 RMK AO2 SLP140 P0000 T10111022
KSCK Gnd/Tower/NORCAL App Stockton Metropolitan Airport (Stockton, US-CA)
ksckNearest METAR:
KSCK 290955Z AUTO 00000KT 2 1/2SM BR CLR 06/05 A3020 RMK AO2 SLP226 T00610050
KSGR Ground/Tower Sugar Land Regional Airport (Houston, US-TX)
ksgrNearest METAR:
KSGR 291020Z AUTO 00000KT 1/2SM VV001 06/04 A3021 RMK AO2 T00610044
KSTS Tower Charles M. Schulz - Sonoma County Airport (Santa Rosa, US-CA)
kstsNearest METAR:
KSTS 291027Z AUTO 00000KT 1/2SM FG VV003 07/07 A3020 RMK AO2 T00720072
KSYR Tower/Approach Syracuse Hancock International Airport (Syracuse, US-NY)
ksyrNearest METAR:
KSYR 290954Z 32008KT 8SM -SN OVC006 00/M01 A2987 RMK AO2 SNB45 SLP116 P0000 T00001006
KTME Del/Gnd/Twr/App Houston Executive Airport (Houston, US-TX)
ktmeNearest METAR:
KTME 291015Z AUTO 00000KT M1/4SM FG OVC001 07/07 A3023 RMK AO2
LBBG Twr/App Burgas International Airport (Burgas, Bulgaria)
WX MAP UNAVAILABLENearest METAR:
LBBG 291030Z 22025G36KT 9999 FEW044 23/12 Q0993 NOSIG
LHDC Info/Tower Debrecen Airport (Debrecen, Hungary)
WX MAP UNAVAILABLENearest METAR:
LHDC 290945Z AUTO 25010KT 210V280 7000 OVC008 03/02 Q0996 BECMG OVC010
LMML GndTwr/App/Control Malta International Airport (Luqa, Malta)
WX MAP UNAVAILABLENearest METAR:
LMML 291015Z 24023G35KT 210V270 9999 SCT040 15/06 Q1008 NOSIG
LSZB App/Dep Bern-Belp Airport (Bern, Switzerland)
WX MAP UNAVAILABLENearest METAR:
LSZB 291020Z VRB01KT 9999 -SN FEW011 SCT032 BKN036 01/M02 Q1009 TEMPO 2000 SHSN
LSZG Tower Grenchen Airport (Grenchen, Switzerland)
WX MAP UNAVAILABLENearest METAR:
LSZG 291020Z 21005KT 6000 -SN FEW025 SCT050 BKN071 02/M00 Q1009 TEMPO 9999
LSMD Tower Dubendorf Air Base (Dubendorf, Switzerland)
WX MAP UNAVAILABLENearest METAR:
LSMD 291020Z 29005KT 3900 -SN OVC007 01/M00 Q1008 RMK GRN
LTBA Gnd/Twr/App Ataturk Airport (Istanbul, Turkey)
WX MAP UNAVAILABLENearest METAR:
LTBA 291020Z 22027G38KT 9999 BKN032 BKN080 21/11 Q1000 NOSIG RMK RWY23 22031KT
PADQ Gnd/Twr/ZAN Kodiak Airport (Kodiak, US-AK)
padqNearest METAR:
PADQ 291029Z AUTO 02010KT 1 1/4SM -SN BR SCT012 OVC020 M04/M06 A2943 RMK AO2 P0002 T10391061 TSNO
PALH Tower Lake Hood Seaplane Base (Anchorage, US-AK)
palhNearest METAR:
PALH 291017Z AUTO 03004KT 2 1/2SM BR OVC038 M17/M19 A2970 RMK AO2 T11671189 TSNO
PAMR Ground/Tower Merrill Field Airport (Anchorage, US-AK)
pamrNearest METAR:
PAMR 291015Z 03004KT 7SM -SN BR OVC032 M17/M20 A2968 RMK AO2 P0000 T11721200 $
SEQM Gnd/Twr/App Mariscal Sucre International Airport (Quito, Ecuador)
WX MAP UNAVAILABLENearest METAR:
SEQM 291000Z 34003KT 9999 OVC003 13/12 Q1023 NOSIG RMK A3023
UKKM Tower Antonov-2 International Airport (Gostomel, Ukraine)
WX MAP UNAVAILABLENearest METAR:
UKKM 291000Z 13004MPS 100V170 6000 OVC006 10/08 Q0989 TEMPO 2100 -RA BR OVC005
UUEE Twr/App/Radar Sheremetyevo Airport (Moscow, Russia)
WX MAP UNAVAILABLENearest METAR:
UUEE 291000Z 13005MPS 2500 1300NE BR OVC002 04/03 Q1001 R88/290051 TEMPO 0500 FG RMK QBB060